createdAt,value
2023-01-20T00:01:49.353Z,3.77
2023-01-20T00:06:51.630Z,3.74
2023-01-20T00:11:53.605Z,3.75
2023-01-20T00:16:57.705Z,3.74
2023-01-20T00:22:00.311Z,3.72
2023-01-20T00:27:02.533Z,3.69
2023-01-20T00:32:05.527Z,3.67
2023-01-20T00:37:08.455Z,3.65
2023-01-20T00:42:10.521Z,3.63
2023-01-20T00:47:12.513Z,3.63
2023-01-20T00:52:16.083Z,3.62
2023-01-20T00:57:18.721Z,3.63
2023-01-20T01:02:22.189Z,3.62
2023-01-20T01:07:26.816Z,3.60
2023-01-20T01:12:28.873Z,3.59
2023-01-20T01:17:30.853Z,3.57
2023-01-20T01:22:35.244Z,3.57
2023-01-20T01:27:37.752Z,3.52
2023-01-20T01:32:42.270Z,3.48
2023-01-20T01:37:45.336Z,3.45
2023-01-20T01:42:47.497Z,3.41
2023-01-20T01:48:06.044Z,3.41
2023-01-20T01:53:09.754Z,3.43
2023-01-20T01:58:17.046Z,3.43
2023-01-20T02:03:22.811Z,3.44
2023-01-20T02:08:26.326Z,3.47
2023-01-20T02:13:29.081Z,3.48
2023-01-20T02:18:51.607Z,3.50
2023-01-20T02:23:56.866Z,3.47
2023-01-20T02:29:14.431Z,3.42
2023-01-20T02:34:31.800Z,3.42
2023-01-20T02:39:42.924Z,3.39
2023-01-20T02:44:54.058Z,3.38
2023-01-20T02:50:05.833Z,3.35
2023-01-20T02:55:12.717Z,3.34
2023-01-20T03:00:23.391Z,3.33
2023-01-20T03:05:43.136Z,3.32
2023-01-20T03:10:48.130Z,3.33
2023-01-20T03:15:53.234Z,3.31
2023-01-20T03:20:55.839Z,3.29
2023-01-20T03:25:58.690Z,3.24
2023-01-20T03:31:07.728Z,3.23
2023-01-20T03:36:11.435Z,3.25
2023-01-20T03:41:44.813Z,3.29
2023-01-20T03:46:54.410Z,3.27
2023-01-20T03:52:09.229Z,3.27
2023-01-20T03:57:17.382Z,3.29
2023-01-20T04:02:22.570Z,3.31
2023-01-20T04:07:27.036Z,3.31
2023-01-20T04:12:29.644Z,3.33
2023-01-20T04:17:32.030Z,3.34
2023-01-20T04:22:53.837Z,3.33
2023-01-20T04:27:56.260Z,3.33
2023-01-20T04:32:58.331Z,3.32
2023-01-20T04:38:00.376Z,3.32
2023-01-20T04:43:02.075Z,3.31
2023-01-20T04:48:08.210Z,3.33
2023-01-20T04:53:17.037Z,3.32
2023-01-20T04:58:18.709Z,3.31
2023-01-20T05:03:20.345Z,3.32
2023-01-20T05:08:22.404Z,3.30
2023-01-20T05:13:24.452Z,3.31
2023-01-20T05:18:26.176Z,3.31
2023-01-20T05:23:27.925Z,3.32
2023-01-20T05:28:29.832Z,3.33
2023-01-20T05:33:31.639Z,3.33
2023-01-20T05:38:33.505Z,3.34
2023-01-20T05:43:35.783Z,3.36
2023-01-20T05:48:37.485Z,3.39
2023-01-20T05:53:39.882Z,3.41
2023-01-20T05:58:42.245Z,3.42
2023-01-20T06:03:44.016Z,3.41
2023-01-20T06:08:46.342Z,3.42
2023-01-20T06:13:48.626Z,3.42
2023-01-20T06:18:50.324Z,3.44
2023-01-20T06:23:53.313Z,3.45
2023-01-20T06:28:59.547Z,3.46
2023-01-20T06:34:01.650Z,3.48
2023-01-20T06:39:03.637Z,3.48
2023-01-20T06:44:05.396Z,3.47
2023-01-20T06:49:07.359Z,3.47
2023-01-20T06:54:09.558Z,3.45
2023-01-20T06:59:12.000Z,3.44
2023-01-20T07:04:14.464Z,3.43
2023-01-20T07:09:16.241Z,3.45
2023-01-20T07:14:17.970Z,3.46
2023-01-20T07:19:19.689Z,3.43
2023-01-20T07:24:21.601Z,3.42
2023-01-20T07:29:23.492Z,3.41
2023-01-20T07:34:25.594Z,3.41
2023-01-20T07:39:27.464Z,3.42
2023-01-20T07:44:29.261Z,3.39
2023-01-20T07:49:31.046Z,3.37
2023-01-20T07:54:32.781Z,3.36
2023-01-20T07:59:34.467Z,3.38
2023-01-20T08:04:36.344Z,3.40
2023-01-20T08:09:38.145Z,3.41
2023-01-20T08:14:39.812Z,3.43
2023-01-20T08:19:41.805Z,3.45
2023-01-20T08:24:43.748Z,3.48
2023-01-20T08:29:45.808Z,3.51
2023-01-20T08:34:47.694Z,3.53
2023-01-20T08:39:49.894Z,3.58
2023-01-20T08:44:53.604Z,3.61
2023-01-20T08:49:56.422Z,3.67
2023-01-20T08:54:58.985Z,3.73
2023-01-20T09:00:00.769Z,3.78
2023-01-20T09:05:04.344Z,3.84
2023-01-20T09:10:06.843Z,3.89
2023-01-20T09:15:09.311Z,3.93
2023-01-20T09:20:11.644Z,4.01
2023-01-20T09:25:13.873Z,4.06
2023-01-20T09:30:16.010Z,4.11
2023-01-20T09:35:18.337Z,4.14
2023-01-20T09:40:48.587Z,4.22
2023-01-20T09:46:01.491Z,4.26
2023-01-20T09:51:32.886Z,4.32
2023-01-20T09:56:41.358Z,4.36
2023-01-20T10:01:48.501Z,4.38
2023-01-20T10:06:54.769Z,4.42
2023-01-20T10:12:07.410Z,4.45
2023-01-20T10:17:22.599Z,4.46
2023-01-20T10:22:34.554Z,4.46
2023-01-20T10:27:42.913Z,4.45
2023-01-20T10:33:26.202Z,4.43
2023-01-20T10:38:54.381Z,4.40
2023-01-20T10:43:58.219Z,4.39
2023-01-20T10:49:18.837Z,4.37
2023-01-20T10:55:15.399Z,4.33
2023-01-20T11:00:23.878Z,4.37
2023-01-20T11:05:32.538Z,4.41
2023-01-20T11:10:34.542Z,4.41
2023-01-20T11:15:41.192Z,4.40
2023-01-20T11:21:02.024Z,4.43
2023-01-20T11:26:16.231Z,4.46
2023-01-20T11:31:19.335Z,4.46
2023-01-20T11:36:24.035Z,4.48
2023-01-20T11:41:28.973Z,4.51
2023-01-20T11:46:33.175Z,4.55
2023-01-20T11:51:45.616Z,4.59
2023-01-20T11:56:52.480Z,4.59
2023-01-20T12:02:01.889Z,4.57
2023-01-20T12:07:25.647Z,4.57
2023-01-20T12:12:30.851Z,4.60
2023-01-20T12:17:44.145Z,4.55
2023-01-20T12:23:01.560Z,4.54
2023-01-20T12:28:12.681Z,4.49
2023-01-20T12:33:22.107Z,4.41
2023-01-20T12:38:25.012Z,4.38
2023-01-20T12:44:04.020Z,4.36
2023-01-20T12:49:24.414Z,4.33
2023-01-20T12:54:48.295Z,4.36
2023-01-20T13:00:09.458Z,4.40
2023-01-20T13:05:42.407Z,4.47
2023-01-20T13:10:56.538Z,4.54
2023-01-20T13:16:09.030Z,4.63
2023-01-20T13:21:20.961Z,4.71
2023-01-20T13:26:22.815Z,4.72
2023-01-20T13:31:36.951Z,4.67
2023-01-20T13:36:39.021Z,4.63
2023-01-20T13:41:51.829Z,4.63
2023-01-20T13:46:56.184Z,4.63
2023-01-20T13:51:58.151Z,4.63
2023-01-20T13:57:23.278Z,4.63
2023-01-20T14:02:29.006Z,4.66
2023-01-20T14:07:33.242Z,4.65
2023-01-20T14:12:41.151Z,4.66
2023-01-20T14:17:42.937Z,4.68
2023-01-20T14:22:44.628Z,4.67
2023-01-20T14:27:46.349Z,4.55
2023-01-20T14:32:48.526Z,4.42
2023-01-20T14:37:52.257Z,4.27
2023-01-20T14:42:59.177Z,4.21
2023-01-20T14:48:02.793Z,4.17
2023-01-20T14:53:05.188Z,4.17
2023-01-20T14:58:16.174Z,4.16
2023-01-20T15:03:17.937Z,4.08
2023-01-20T15:08:33.758Z,4.01
2023-01-20T15:13:37.687Z,3.98
2023-01-20T15:18:40.609Z,3.98
2023-01-20T15:23:44.260Z,4.02
2023-01-20T15:28:45.995Z,4.05
2023-01-20T15:33:47.779Z,4.08
2023-01-20T15:38:50.701Z,4.09
2023-01-20T15:43:52.737Z,4.09
2023-01-20T15:48:54.539Z,4.09
2023-01-20T15:53:56.446Z,4.10
2023-01-20T15:58:58.159Z,4.05
2023-01-20T16:04:00.116Z,3.99
2023-01-20T16:09:04.064Z,3.90
2023-01-20T16:14:05.893Z,3.84
2023-01-20T16:19:07.793Z,3.74
2023-01-20T16:24:10.551Z,3.68
2023-01-20T16:29:12.599Z,3.60
2023-01-20T16:34:15.819Z,3.48
2023-01-20T16:39:17.482Z,3.41
2023-01-20T16:44:19.165Z,3.36
2023-01-20T16:49:22.681Z,3.34
2023-01-20T16:54:24.595Z,3.32
2023-01-20T16:59:26.348Z,3.24
2023-01-20T17:04:29.393Z,3.15
2023-01-20T17:09:31.122Z,3.13
2023-01-20T17:14:33.059Z,3.13
2023-01-20T17:19:34.790Z,3.14
2023-01-20T17:24:36.681Z,3.13
2023-01-20T17:29:38.415Z,3.12
2023-01-20T17:34:40.078Z,3.06
2023-01-20T17:39:42.754Z,3.04
2023-01-20T17:44:44.624Z,3.02
2023-01-20T17:49:47.320Z,3.06
2023-01-20T17:54:49.909Z,3.06
2023-01-20T17:59:52.938Z,3.07
2023-01-20T18:04:56.848Z,3.06
2023-01-20T18:09:59.743Z,2.98
2023-01-20T18:15:03.959Z,2.95
2023-01-20T18:20:07.204Z,2.89
2023-01-20T18:25:12.331Z,2.90
2023-01-20T18:30:15.325Z,2.90
2023-01-20T18:35:17.785Z,2.92
2023-01-20T18:40:22.366Z,2.86
2023-01-20T18:45:27.615Z,2.77
2023-01-20T18:50:29.664Z,2.75
2023-01-20T18:55:31.668Z,2.71
2023-01-20T19:00:33.891Z,2.69
2023-01-20T19:05:36.127Z,2.63
2023-01-20T19:10:38.180Z,2.60
2023-01-20T19:15:40.769Z,2.59
2023-01-20T19:20:43.426Z,2.55
2023-01-20T19:25:45.790Z,2.54
2023-01-20T19:30:47.847Z,2.53
2023-01-20T19:35:49.744Z,2.54
2023-01-20T19:40:51.504Z,2.57
2023-01-20T19:45:53.292Z,2.60
2023-01-20T19:50:55.244Z,2.65
2023-01-20T19:56:15.470Z,2.64
2023-01-20T20:01:23.073Z,2.58
2023-01-20T20:06:29.698Z,2.50
2023-01-20T20:11:32.154Z,2.41
2023-01-20T20:16:36.576Z,2.37
2023-01-20T20:21:38.353Z,2.36
2023-01-20T20:26:41.983Z,2.31
2023-01-20T20:31:43.828Z,2.34
2023-01-20T20:36:46.411Z,2.31
2023-01-20T20:41:48.422Z,2.32
2023-01-20T20:46:50.345Z,2.35
2023-01-20T20:51:52.855Z,2.35
2023-01-20T20:56:54.985Z,2.27
2023-01-20T21:01:57.100Z,2.25
2023-01-20T21:06:58.972Z,2.26
2023-01-20T21:12:00.848Z,2.28
2023-01-20T21:17:04.121Z,2.26
2023-01-20T21:22:06.132Z,2.25
2023-01-20T21:27:08.489Z,2.25
2023-01-20T21:32:10.845Z,2.23
2023-01-20T21:37:12.942Z,2.24
2023-01-20T21:42:15.189Z,2.27
2023-01-20T21:47:17.329Z,2.27
2023-01-20T21:52:40.893Z,2.25
2023-01-20T21:57:43.270Z,2.22
2023-01-20T22:02:45.446Z,2.21
2023-01-20T22:07:48.730Z,2.13
2023-01-20T22:12:51.062Z,2.13
2023-01-20T22:17:52.929Z,2.16
2023-01-20T22:22:55.535Z,2.12
2023-01-20T22:27:57.656Z,2.09
2023-01-20T22:32:59.704Z,2.05
2023-01-20T22:38:01.648Z,2.05
2023-01-20T22:43:03.776Z,2.01
2023-01-20T22:48:07.145Z,1.94
2023-01-20T22:53:09.340Z,1.88
2023-01-20T22:58:12.503Z,1.81
2023-01-20T23:03:14.514Z,1.79
2023-01-20T23:08:16.478Z,1.69
2023-01-20T23:13:19.141Z,1.64
2023-01-20T23:18:22.649Z,1.59
2023-01-20T23:23:26.560Z,1.51
2023-01-20T23:28:28.896Z,1.44
2023-01-20T23:33:32.329Z,1.38
2023-01-20T23:38:34.687Z,1.37
2023-01-20T23:43:37.095Z,1.35
2023-01-20T23:48:39.618Z,1.35
2023-01-20T23:53:42.322Z,1.29
2023-01-20T23:58:45.589Z,1.30
